sensor_id;sensor_type;location;lat;lon;timestamp;P1;durP1;ratioP1;P2;durP2;ratioP2
11911;SDS011;6016;41.928;25.556;2024-02-21T00:01:07;29.58;;;13.45;;
11911;SDS011;6016;41.928;25.556;2024-02-21T00:03:34;21.73;;;11.80;;
11911;SDS011;6016;41.928;25.556;2024-02-21T00:06:01;24.30;;;12.15;;
11911;SDS011;6016;41.928;25.556;2024-02-21T00:08:28;28.38;;;13.18;;
11911;SDS011;6016;41.928;25.556;2024-02-21T00:10:55;27.95;;;13.07;;
11911;SDS011;6016;41.928;25.556;2024-02-21T00:13:22;23.55;;;11.52;;
11911;SDS011;6016;41.928;25.556;2024-02-21T00:15:51;24.23;;;11.23;;
11911;SDS011;6016;41.928;25.556;2024-02-21T00:18:18;25.08;;;11.95;;
11911;SDS011;6016;41.928;25.556;2024-02-21T00:20:44;23.90;;;10.93;;
11911;SDS011;6016;41.928;25.556;2024-02-21T00:23:12;21.95;;;10.60;;
11911;SDS011;6016;41.928;25.556;2024-02-21T00:25:39;22.95;;;10.48;;
11911;SDS011;6016;41.928;25.556;2024-02-21T00:28:05;22.83;;;10.23;;
11911;SDS011;6016;41.928;25.556;2024-02-21T00:30:32;23.30;;;11.13;;
11911;SDS011;6016;41.928;25.556;2024-02-21T00:33:01;20.77;;;10.45;;
11911;SDS011;6016;41.928;25.556;2024-02-21T00:35:28;20.92;;;10.25;;
11911;SDS011;6016;41.928;25.556;2024-02-21T00:37:55;21.17;;;10.38;;
11911;SDS011;6016;41.928;25.556;2024-02-21T00:40:24;21.67;;;10.13;;
11911;SDS011;6016;41.928;25.556;2024-02-21T00:42:51;21.60;;;10.05;;
11911;SDS011;6016;41.928;25.556;2024-02-21T00:45:18;29.35;;;14.00;;
11911;SDS011;6016;41.928;25.556;2024-02-21T00:47:45;27.13;;;12.70;;
11911;SDS011;6016;41.928;25.556;2024-02-21T00:50:14;27.15;;;13.00;;
11911;SDS011;6016;41.928;25.556;2024-02-21T00:52:41;24.73;;;11.60;;
11911;SDS011;6016;41.928;25.556;2024-02-21T00:55:08;23.55;;;11.25;;
11911;SDS011;6016;41.928;25.556;2024-02-21T00:57:35;22.27;;;10.70;;
11911;SDS011;6016;41.928;25.556;2024-02-21T01:00:03;21.30;;;10.38;;
11911;SDS011;6016;41.928;25.556;2024-02-21T01:02:30;23.05;;;10.48;;
11911;SDS011;6016;41.928;25.556;2024-02-21T01:04:57;22.70;;;10.63;;
11911;SDS011;6016;41.928;25.556;2024-02-21T01:07:26;20.98;;;10.80;;
11911;SDS011;6016;41.928;25.556;2024-02-21T01:09:53;22.15;;;9.88;;
11911;SDS011;6016;41.928;25.556;2024-02-21T01:12:20;23.02;;;10.82;;
11911;SDS011;6016;41.928;25.556;2024-02-21T01:14:47;22.75;;;10.48;;
11911;SDS011;6016;41.928;25.556;2024-02-21T01:17:14;20.17;;;10.63;;
11911;SDS011;6016;41.928;25.556;2024-02-21T01:19:41;21.13;;;10.55;;
11911;SDS011;6016;41.928;25.556;2024-02-21T01:22:08;22.45;;;10.65;;
11911;SDS011;6016;41.928;25.556;2024-02-21T01:24:37;20.08;;;9.82;;
11911;SDS011;6016;41.928;25.556;2024-02-21T01:27:04;21.92;;;10.63;;
11911;SDS011;6016;41.928;25.556;2024-02-21T01:29:31;20.23;;;10.02;;
11911;SDS011;6016;41.928;25.556;2024-02-21T01:31:58;22.40;;;10.50;;
11911;SDS011;6016;41.928;25.556;2024-02-21T01:34:25;23.45;;;10.88;;
11911;SDS011;6016;41.928;25.556;2024-02-21T01:36:52;26.30;;;12.27;;
11911;SDS011;6016;41.928;25.556;2024-02-21T01:39:19;27.98;;;13.40;;
11911;SDS011;6016;41.928;25.556;2024-02-21T01:41:48;26.67;;;12.30;;
11911;SDS011;6016;41.928;25.556;2024-02-21T01:44:14;26.40;;;12.30;;
11911;SDS011;6016;41.928;25.556;2024-02-21T01:46:41;28.55;;;12.05;;
11911;SDS011;6016;41.928;25.556;2024-02-21T01:49:08;28.20;;;12.98;;
11911;SDS011;6016;41.928;25.556;2024-02-21T01:51:35;32.00;;;14.73;;
11911;SDS011;6016;41.928;25.556;2024-02-21T01:54:03;32.65;;;14.23;;
11911;SDS011;6016;41.928;25.556;2024-02-21T01:56:30;25.55;;;12.45;;
11911;SDS011;6016;41.928;25.556;2024-02-21T01:58:58;26.67;;;11.68;;
11911;SDS011;6016;41.928;25.556;2024-02-21T02:01:26;26.27;;;12.50;;
11911;SDS011;6016;41.928;25.556;2024-02-21T02:03:53;30.88;;;14.00;;
11911;SDS011;6016;41.928;25.556;2024-02-21T02:06:21;28.83;;;13.35;;
11911;SDS011;6016;41.928;25.556;2024-02-21T02:08:48;26.95;;;14.02;;
11911;SDS011;6016;41.928;25.556;2024-02-21T02:11:15;30.05;;;14.32;;
11911;SDS011;6016;41.928;25.556;2024-02-21T02:13:43;30.27;;;13.88;;
11911;SDS011;6016;41.928;25.556;2024-02-21T02:16:11;30.23;;;14.43;;
11911;SDS011;6016;41.928;25.556;2024-02-21T02:18:38;25.23;;;11.73;;
11911;SDS011;6016;41.928;25.556;2024-02-21T02:21:10;25.58;;;12.35;;
11911;SDS011;6016;41.928;25.556;2024-02-21T02:23:41;25.15;;;12.35;;
11911;SDS011;6016;41.928;25.556;2024-02-21T02:26:09;23.30;;;11.70;;
11911;SDS011;6016;41.928;25.556;2024-02-21T02:28:36;21.42;;;10.52;;
11911;SDS011;6016;41.928;25.556;2024-02-21T02:31:03;21.60;;;10.88;;
11911;SDS011;6016;41.928;25.556;2024-02-21T02:33:30;22.20;;;11.18;;
11911;SDS011;6016;41.928;25.556;2024-02-21T02:35:57;23.60;;;11.13;;
11911;SDS011;6016;41.928;25.556;2024-02-21T02:38:24;23.20;;;10.50;;
11911;SDS011;6016;41.928;25.556;2024-02-21T02:40:52;22.95;;;11.10;;
11911;SDS011;6016;41.928;25.556;2024-02-21T02:43:19;26.83;;;11.45;;
11911;SDS011;6016;41.928;25.556;2024-02-21T02:45:46;23.13;;;11.13;;
11911;SDS011;6016;41.928;25.556;2024-02-21T02:48:13;25.73;;;11.75;;
11911;SDS011;6016;41.928;25.556;2024-02-21T02:50:41;24.33;;;11.70;;
11911;SDS011;6016;41.928;25.556;2024-02-21T02:53:08;26.48;;;11.88;;
11911;SDS011;6016;41.928;25.556;2024-02-21T02:55:35;24.05;;;11.20;;
11911;SDS011;6016;41.928;25.556;2024-02-21T02:58:03;26.65;;;12.02;;
11911;SDS011;6016;41.928;25.556;2024-02-21T03:00:30;32.72;;;14.13;;
11911;SDS011;6016;41.928;25.556;2024-02-21T03:03:01;32.40;;;14.07;;
11911;SDS011;6016;41.928;25.556;2024-02-21T03:05:29;26.73;;;12.50;;
11911;SDS011;6016;41.928;25.556;2024-02-21T03:07:56;27.92;;;11.70;;
11911;SDS011;6016;41.928;25.556;2024-02-21T03:10:24;23.05;;;11.10;;
11911;SDS011;6016;41.928;25.556;2024-02-21T03:12:51;24.40;;;11.43;;
11911;SDS011;6016;41.928;25.556;2024-02-21T03:15:20;26.65;;;11.85;;
11911;SDS011;6016;41.928;25.556;2024-02-21T03:17:47;26.33;;;11.43;;
11911;SDS011;6016;41.928;25.556;2024-02-21T03:20:14;22.05;;;11.02;;
11911;SDS011;6016;41.928;25.556;2024-02-21T03:22:41;23.35;;;11.10;;
11911;SDS011;6016;41.928;25.556;2024-02-21T03:25:08;29.67;;;12.93;;
11911;SDS011;6016;41.928;25.556;2024-02-21T03:27:36;26.90;;;12.32;;
11911;SDS011;6016;41.928;25.556;2024-02-21T03:30:03;27.15;;;12.80;;
11911;SDS011;6016;41.928;25.556;2024-02-21T03:32:33;27.48;;;12.65;;
11911;SDS011;6016;41.928;25.556;2024-02-21T03:35:00;25.75;;;12.63;;
11911;SDS011;6016;41.928;25.556;2024-02-21T03:37:27;26.15;;;12.38;;
11911;SDS011;6016;41.928;25.556;2024-02-21T03:39:54;24.48;;;12.05;;
11911;SDS011;6016;41.928;25.556;2024-02-21T03:42:21;27.98;;;13.43;;
11911;SDS011;6016;41.928;25.556;2024-02-21T03:44:48;28.77;;;11.95;;
11911;SDS011;6016;41.928;25.556;2024-02-21T03:47:15;25.67;;;11.95;;
11911;SDS011;6016;41.928;25.556;2024-02-21T03:49:43;27.75;;;12.68;;
11911;SDS011;6016;41.928;25.556;2024-02-21T03:52:10;28.42;;;12.65;;
11911;SDS011;6016;41.928;25.556;2024-02-21T03:54:37;24.45;;;11.90;;
11911;SDS011;6016;41.928;25.556;2024-02-21T03:57:04;24.90;;;12.07;;
11911;SDS011;6016;41.928;25.556;2024-02-21T03:59:32;26.23;;;12.30;;
11911;SDS011;6016;41.928;25.556;2024-02-21T04:01:59;21.73;;;10.90;;
11911;SDS011;6016;41.928;25.556;2024-02-21T04:04:26;28.50;;;12.43;;
11911;SDS011;6016;41.928;25.556;2024-02-21T04:06:54;23.27;;;12.02;;
11911;SDS011;6016;41.928;25.556;2024-02-21T04:09:21;27.05;;;12.88;;
11911;SDS011;6016;41.928;25.556;2024-02-21T04:11:48;27.23;;;12.35;;
11911;SDS011;6016;41.928;25.556;2024-02-21T04:14:15;28.83;;;13.52;;
11911;SDS011;6016;41.928;25.556;2024-02-21T04:16:42;27.73;;;12.55;;
11911;SDS011;6016;41.928;25.556;2024-02-21T04:19:09;27.00;;;12.43;;
11911;SDS011;6016;41.928;25.556;2024-02-21T04:21:36;24.27;;;11.93;;
11911;SDS011;6016;41.928;25.556;2024-02-21T04:24:05;26.23;;;12.38;;
11911;SDS011;6016;41.928;25.556;2024-02-21T04:26:32;26.92;;;12.77;;
11911;SDS011;6016;41.928;25.556;2024-02-21T04:28:59;29.65;;;13.45;;
11911;SDS011;6016;41.928;25.556;2024-02-21T04:31:26;29.98;;;13.10;;
11911;SDS011;6016;41.928;25.556;2024-02-21T04:33:53;30.27;;;13.70;;
11911;SDS011;6016;41.928;25.556;2024-02-21T04:36:20;33.33;;;15.57;;
11911;SDS011;6016;41.928;25.556;2024-02-21T04:38:47;33.72;;;15.65;;
11911;SDS011;6016;41.928;25.556;2024-02-21T04:41:16;33.47;;;15.45;;
11911;SDS011;6016;41.928;25.556;2024-02-21T04:43:45;31.15;;;14.05;;
11911;SDS011;6016;41.928;25.556;2024-02-21T04:46:12;30.13;;;14.43;;
11911;SDS011;6016;41.928;25.556;2024-02-21T04:48:39;29.95;;;13.50;;
11911;SDS011;6016;41.928;25.556;2024-02-21T04:51:06;30.30;;;13.80;;
11911;SDS011;6016;41.928;25.556;2024-02-21T04:53:33;26.60;;;12.70;;
11911;SDS011;6016;41.928;25.556;2024-02-21T04:56:00;32.67;;;16.20;;
11911;SDS011;6016;41.928;25.556;2024-02-21T04:58:28;32.85;;;15.38;;
11911;SDS011;6016;41.928;25.556;2024-02-21T05:00:55;36.78;;;16.20;;
11911;SDS011;6016;41.928;25.556;2024-02-21T05:03:23;36.67;;;17.10;;
11911;SDS011;6016;41.928;25.556;2024-02-21T05:05:50;35.33;;;15.32;;
11911;SDS011;6016;41.928;25.556;2024-02-21T05:08:17;33.88;;;14.85;;
11911;SDS011;6016;41.928;25.556;2024-02-21T05:10:44;37.22;;;15.10;;
11911;SDS011;6016;41.928;25.556;2024-02-21T05:13:11;30.50;;;14.70;;
11911;SDS011;6016;41.928;25.556;2024-02-21T05:15:39;33.33;;;15.50;;
11911;SDS011;6016;41.928;25.556;2024-02-21T05:18:06;35.72;;;15.88;;
11911;SDS011;6016;41.928;25.556;2024-02-21T05:20:33;32.92;;;15.57;;
11911;SDS011;6016;41.928;25.556;2024-02-21T05:23:00;38.40;;;16.75;;
11911;SDS011;6016;41.928;25.556;2024-02-21T05:25:27;43.17;;;17.55;;
11911;SDS011;6016;41.928;25.556;2024-02-21T05:27:54;42.22;;;17.45;;
11911;SDS011;6016;41.928;25.556;2024-02-21T05:30:26;40.08;;;17.08;;
11911;SDS011;6016;41.928;25.556;2024-02-21T05:32:55;38.10;;;17.33;;
11911;SDS011;6016;41.928;25.556;2024-02-21T05:35:24;38.28;;;17.45;;
11911;SDS011;6016;41.928;25.556;2024-02-21T05:37:52;40.72;;;19.48;;
11911;SDS011;6016;41.928;25.556;2024-02-21T05:40:19;43.75;;;20.05;;
11911;SDS011;6016;41.928;25.556;2024-02-21T05:42:46;54.38;;;24.88;;
11911;SDS011;6016;41.928;25.556;2024-02-21T05:45:13;59.85;;;31.52;;
11911;SDS011;6016;41.928;25.556;2024-02-21T05:47:41;55.58;;;29.00;;
11911;SDS011;6016;41.928;25.556;2024-02-21T05:50:09;60.47;;;27.27;;
11911;SDS011;6016;41.928;25.556;2024-02-21T05:52:37;56.35;;;25.85;;
11911;SDS011;6016;41.928;25.556;2024-02-21T05:55:05;55.53;;;26.40;;
11911;SDS011;6016;41.928;25.556;2024-02-21T05:57:34;64.13;;;27.38;;
11911;SDS011;6016;41.928;25.556;2024-02-21T06:00:02;62.28;;;27.48;;
11911;SDS011;6016;41.928;25.556;2024-02-21T06:02:31;54.33;;;24.83;;
11911;SDS011;6016;41.928;25.556;2024-02-21T06:04:58;56.83;;;23.70;;
11911;SDS011;6016;41.928;25.556;2024-02-21T06:07:26;50.05;;;23.10;;
11911;SDS011;6016;41.928;25.556;2024-02-21T06:09:53;46.58;;;22.00;;
11911;SDS011;6016;41.928;25.556;2024-02-21T06:12:20;52.08;;;23.95;;
11911;SDS011;6016;41.928;25.556;2024-02-21T06:14:47;51.97;;;23.65;;
11911;SDS011;6016;41.928;25.556;2024-02-21T06:17:14;42.20;;;22.45;;
11911;SDS011;6016;41.928;25.556;2024-02-21T06:19:42;47.28;;;21.98;;
11911;SDS011;6016;41.928;25.556;2024-02-21T06:22:09;52.40;;;25.33;;
11911;SDS011;6016;41.928;25.556;2024-02-21T06:24:38;58.70;;;24.83;;
11911;SDS011;6016;41.928;25.556;2024-02-21T06:27:05;129.50;;;40.33;;
11911;SDS011;6016;41.928;25.556;2024-02-21T06:29:33;70.93;;;27.92;;
11911;SDS011;6016;41.928;25.556;2024-02-21T06:32:00;46.85;;;21.67;;
11911;SDS011;6016;41.928;25.556;2024-02-21T06:34:28;48.08;;;21.63;;
11911;SDS011;6016;41.928;25.556;2024-02-21T06:36:55;54.80;;;24.42;;
11911;SDS011;6016;41.928;25.556;2024-02-21T06:39:22;58.17;;;26.73;;
11911;SDS011;6016;41.928;25.556;2024-02-21T06:41:51;51.15;;;24.20;;
11911;SDS011;6016;41.928;25.556;2024-02-21T06:44:18;53.25;;;23.88;;
11911;SDS011;6016;41.928;25.556;2024-02-21T06:46:45;47.78;;;22.45;;
11911;SDS011;6016;41.928;25.556;2024-02-21T06:49:12;47.38;;;20.98;;
11911;SDS011;6016;41.928;25.556;2024-02-21T06:51:41;45.65;;;20.92;;
11911;SDS011;6016;41.928;25.556;2024-02-21T06:54:08;37.10;;;18.13;;
11911;SDS011;6016;41.928;25.556;2024-02-21T06:56:36;41.72;;;19.30;;
11911;SDS011;6016;41.928;25.556;2024-02-21T06:59:05;37.28;;;18.25;;
11911;SDS011;6016;41.928;25.556;2024-02-21T07:01:32;41.47;;;18.33;;
11911;SDS011;6016;41.928;25.556;2024-02-21T07:03:59;41.10;;;18.92;;
11911;SDS011;6016;41.928;25.556;2024-02-21T07:06:26;43.28;;;18.55;;
11911;SDS011;6016;41.928;25.556;2024-02-21T07:08:53;42.42;;;19.17;;
11911;SDS011;6016;41.928;25.556;2024-02-21T07:11:20;39.83;;;18.95;;
11911;SDS011;6016;41.928;25.556;2024-02-21T07:13:47;43.95;;;18.90;;
11911;SDS011;6016;41.928;25.556;2024-02-21T07:16:15;41.22;;;18.48;;
11911;SDS011;6016;41.928;25.556;2024-02-21T07:18:42;41.60;;;19.35;;
11911;SDS011;6016;41.928;25.556;2024-02-21T07:21:09;44.92;;;20.33;;
11911;SDS011;6016;41.928;25.556;2024-02-21T07:23:36;49.58;;;23.15;;
11911;SDS011;6016;41.928;25.556;2024-02-21T07:26:04;45.78;;;21.17;;
11911;SDS011;6016;41.928;25.556;2024-02-21T07:28:31;41.58;;;19.27;;
11911;SDS011;6016;41.928;25.556;2024-02-21T07:30:58;45.63;;;19.63;;
11911;SDS011;6016;41.928;25.556;2024-02-21T07:33:27;38.47;;;18.70;;
11911;SDS011;6016;41.928;25.556;2024-02-21T07:35:55;38.03;;;18.48;;
11911;SDS011;6016;41.928;25.556;2024-02-21T07:38:22;31.20;;;15.07;;
11911;SDS011;6016;41.928;25.556;2024-02-21T07:40:49;27.13;;;13.32;;
11911;SDS011;6016;41.928;25.556;2024-02-21T07:43:16;27.23;;;13.75;;
11911;SDS011;6016;41.928;25.556;2024-02-21T07:45:43;29.23;;;14.02;;
11911;SDS011;6016;41.928;25.556;2024-02-21T07:48:10;33.38;;;14.50;;
11911;SDS011;6016;41.928;25.556;2024-02-21T07:50:39;28.23;;;13.35;;
11911;SDS011;6016;41.928;25.556;2024-02-21T07:53:06;27.83;;;13.63;;
11911;SDS011;6016;41.928;25.556;2024-02-21T07:55:33;30.80;;;14.70;;
11911;SDS011;6016;41.928;25.556;2024-02-21T07:57:59;28.70;;;14.38;;
11911;SDS011;6016;41.928;25.556;2024-02-21T08:00:27;25.58;;;13.13;;
11911;SDS011;6016;41.928;25.556;2024-02-21T08:02:55;27.75;;;13.07;;
11911;SDS011;6016;41.928;25.556;2024-02-21T08:05:22;29.23;;;13.68;;
11911;SDS011;6016;41.928;25.556;2024-02-21T08:07:50;28.48;;;13.73;;
11911;SDS011;6016;41.928;25.556;2024-02-21T08:10:17;31.25;;;15.43;;
11911;SDS011;6016;41.928;25.556;2024-02-21T08:12:45;28.80;;;14.93;;
11911;SDS011;6016;41.928;25.556;2024-02-21T08:15:11;31.52;;;15.52;;
11911;SDS011;6016;41.928;25.556;2024-02-21T08:17:39;28.13;;;13.80;;
11911;SDS011;6016;41.928;25.556;2024-02-21T08:20:06;31.35;;;13.55;;
11911;SDS011;6016;41.928;25.556;2024-02-21T08:22:33;27.85;;;14.30;;
11911;SDS011;6016;41.928;25.556;2024-02-21T08:25:05;31.85;;;14.50;;
11911;SDS011;6016;41.928;25.556;2024-02-21T08:27:33;31.40;;;15.07;;
11911;SDS011;6016;41.928;25.556;2024-02-21T08:30:00;26.85;;;13.80;;
11911;SDS011;6016;41.928;25.556;2024-02-21T08:32:27;32.75;;;15.07;;
11911;SDS011;6016;41.928;25.556;2024-02-21T08:34:55;29.00;;;14.75;;
11911;SDS011;6016;41.928;25.556;2024-02-21T08:37:22;28.02;;;13.70;;
11911;SDS011;6016;41.928;25.556;2024-02-21T08:39:50;51.47;;;25.85;;
11911;SDS011;6016;41.928;25.556;2024-02-21T08:42:19;44.80;;;22.92;;
11911;SDS011;6016;41.928;25.556;2024-02-21T08:44:46;35.47;;;17.38;;
11911;SDS011;6016;41.928;25.556;2024-02-21T08:47:13;33.80;;;16.38;;
11911;SDS011;6016;41.928;25.556;2024-02-21T08:49:40;34.80;;;15.77;;
11911;SDS011;6016;41.928;25.556;2024-02-21T08:52:07;32.03;;;15.68;;
11911;SDS011;6016;41.928;25.556;2024-02-21T08:54:34;29.65;;;16.10;;
11911;SDS011;6016;41.928;25.556;2024-02-21T08:57:01;33.47;;;17.40;;
11911;SDS011;6016;41.928;25.556;2024-02-21T08:59:30;28.83;;;14.25;;
11911;SDS011;6016;41.928;25.556;2024-02-21T09:01:57;29.00;;;14.50;;
11911;SDS011;6016;41.928;25.556;2024-02-21T09:04:24;27.50;;;13.98;;
11911;SDS011;6016;41.928;25.556;2024-02-21T09:06:51;23.45;;;12.25;;
11911;SDS011;6016;41.928;25.556;2024-02-21T09:09:18;22.83;;;13.00;;
11911;SDS011;6016;41.928;25.556;2024-02-21T09:11:45;25.00;;;12.73;;
11911;SDS011;6016;41.928;25.556;2024-02-21T09:14:12;23.02;;;12.75;;
11911;SDS011;6016;41.928;25.556;2024-02-21T09:16:40;23.90;;;12.73;;
11911;SDS011;6016;41.928;25.556;2024-02-21T09:19:08;27.08;;;13.68;;
11911;SDS011;6016;41.928;25.556;2024-02-21T09:21:36;23.90;;;12.80;;
11911;SDS011;6016;41.928;25.556;2024-02-21T09:24:03;23.13;;;13.05;;
11911;SDS011;6016;41.928;25.556;2024-02-21T09:26:31;21.50;;;12.45;;
11911;SDS011;6016;41.928;25.556;2024-02-21T09:28:58;21.35;;;12.30;;
11911;SDS011;6016;41.928;25.556;2024-02-21T09:31:25;23.42;;;13.00;;
11911;SDS011;6016;41.928;25.556;2024-02-21T09:33:54;26.25;;;13.80;;
11911;SDS011;6016;41.928;25.556;2024-02-21T09:36:21;23.33;;;12.57;;
11911;SDS011;6016;41.928;25.556;2024-02-21T09:38:48;23.80;;;13.57;;
11911;SDS011;6016;41.928;25.556;2024-02-21T09:41:15;22.23;;;12.00;;
11911;SDS011;6016;41.928;25.556;2024-02-21T09:43:44;22.25;;;11.98;;
11911;SDS011;6016;41.928;25.556;2024-02-21T09:46:13;18.30;;;11.57;;
11911;SDS011;6016;41.928;25.556;2024-02-21T09:48:48;21.92;;;12.13;;
11911;SDS011;6016;41.928;25.556;2024-02-21T09:51:30;20.45;;;11.20;;
11911;SDS011;6016;41.928;25.556;2024-02-21T09:54:00;21.50;;;12.00;;
11911;SDS011;6016;41.928;25.556;2024-02-21T09:56:29;21.05;;;12.23;;
11911;SDS011;6016;41.928;25.556;2024-02-21T09:58:56;22.40;;;12.18;;
11911;SDS011;6016;41.928;25.556;2024-02-21T10:01:24;20.55;;;11.75;;
11911;SDS011;6016;41.928;25.556;2024-02-21T10:03:52;23.08;;;12.88;;
11911;SDS011;6016;41.928;25.556;2024-02-21T10:06:20;21.67;;;11.70;;
11911;SDS011;6016;41.928;25.556;2024-02-21T10:08:51;18.95;;;10.70;;
11911;SDS011;6016;41.928;25.556;2024-02-21T10:11:22;19.77;;;10.85;;
11911;SDS011;6016;41.928;25.556;2024-02-21T10:13:49;26.20;;;13.40;;
11911;SDS011;6016;41.928;25.556;2024-02-21T10:16:17;19.60;;;11.13;;
11911;SDS011;6016;41.928;25.556;2024-02-21T10:18:44;29.95;;;16.17;;
11911;SDS011;6016;41.928;25.556;2024-02-21T10:21:11;19.17;;;11.20;;
11911;SDS011;6016;41.928;25.556;2024-02-21T10:23:43;16.05;;;9.52;;
11911;SDS011;6016;41.928;25.556;2024-02-21T10:26:11;16.20;;;9.30;;
11911;SDS011;6016;41.928;25.556;2024-02-21T10:28:38;17.05;;;9.90;;
11911;SDS011;6016;41.928;25.556;2024-02-21T10:31:08;16.13;;;8.73;;
11911;SDS011;6016;41.928;25.556;2024-02-21T10:33:36;19.60;;;9.52;;
11911;SDS011;6016;41.928;25.556;2024-02-21T10:36:07;18.48;;;9.98;;
11911;SDS011;6016;41.928;25.556;2024-02-21T10:38:35;18.20;;;9.75;;
11911;SDS011;6016;41.928;25.556;2024-02-21T10:41:05;21.52;;;12.48;;
11911;SDS011;6016;41.928;25.556;2024-02-21T10:43:40;19.95;;;10.05;;
11911;SDS011;6016;41.928;25.556;2024-02-21T10:46:07;19.73;;;10.38;;
11911;SDS011;6016;41.928;25.556;2024-02-21T10:48:41;19.00;;;10.40;;
11911;SDS011;6016;41.928;25.556;2024-02-21T10:51:14;17.83;;;9.82;;
11911;SDS011;6016;41.928;25.556;2024-02-21T10:53:47;16.55;;;9.15;;
11911;SDS011;6016;41.928;25.556;2024-02-21T10:56:28;13.25;;;7.72;;
11911;SDS011;6016;41.928;25.556;2024-02-21T10:58:56;14.93;;;9.00;;
11911;SDS011;6016;41.928;25.556;2024-02-21T11:01:24;12.77;;;7.18;;
11911;SDS011;6016;41.928;25.556;2024-02-21T11:03:54;14.73;;;6.75;;
11911;SDS011;6016;41.928;25.556;2024-02-21T11:06:23;12.88;;;6.43;;
11911;SDS011;6016;41.928;25.556;2024-02-21T11:09:00;13.48;;;6.68;;
11911;SDS011;6016;41.928;25.556;2024-02-21T11:11:30;12.40;;;6.57;;
11911;SDS011;6016;41.928;25.556;2024-02-21T11:14:03;14.18;;;7.70;;
11911;SDS011;6016;41.928;25.556;2024-02-21T11:16:34;18.17;;;8.85;;
11911;SDS011;6016;41.928;25.556;2024-02-21T11:19:06;10.25;;;5.70;;
11911;SDS011;6016;41.928;25.556;2024-02-21T11:21:34;12.88;;;6.47;;
11911;SDS011;6016;41.928;25.556;2024-02-21T11:24:01;10.85;;;6.78;;
11911;SDS011;6016;41.928;25.556;2024-02-21T11:26:30;9.82;;;5.90;;
11911;SDS011;6016;41.928;25.556;2024-02-21T11:28:58;11.10;;;6.82;;
11911;SDS011;6016;41.928;25.556;2024-02-21T11:31:26;6.72;;;4.50;;
11911;SDS011;6016;41.928;25.556;2024-02-21T11:33:53;6.63;;;3.97;;
11911;SDS011;6016;41.928;25.556;2024-02-21T11:36:25;5.50;;;3.80;;
11911;SDS011;6016;41.928;25.556;2024-02-21T11:38:52;8.57;;;5.07;;
11911;SDS011;6016;41.928;25.556;2024-02-21T11:41:19;9.30;;;5.20;;
11911;SDS011;6016;41.928;25.556;2024-02-21T11:43:49;7.55;;;5.00;;
11911;SDS011;6016;41.928;25.556;2024-02-21T11:46:17;7.88;;;4.60;;
11911;SDS011;6016;41.928;25.556;2024-02-21T11:48:45;8.95;;;5.20;;
11911;SDS011;6016;41.928;25.556;2024-02-21T11:51:20;8.15;;;5.38;;
11911;SDS011;6016;41.928;25.556;2024-02-21T11:53:50;10.57;;;6.63;;
11911;SDS011;6016;41.928;25.556;2024-02-21T11:56:17;10.07;;;6.15;;
11911;SDS011;6016;41.928;25.556;2024-02-21T11:58:45;10.68;;;6.90;;
11911;SDS011;6016;41.928;25.556;2024-02-21T12:01:14;7.97;;;5.47;;
11911;SDS011;6016;41.928;25.556;2024-02-21T12:03:41;8.93;;;5.93;;
11911;SDS011;6016;41.928;25.556;2024-02-21T12:06:15;12.45;;;6.97;;
11911;SDS011;6016;41.928;25.556;2024-02-21T12:08:46;10.35;;;6.63;;
11911;SDS011;6016;41.928;25.556;2024-02-21T12:11:18;9.48;;;5.82;;
11911;SDS011;6016;41.928;25.556;2024-02-21T12:13:46;10.85;;;6.47;;
11911;SDS011;6016;41.928;25.556;2024-02-21T12:16:16;10.32;;;6.05;;
11911;SDS011;6016;41.928;25.556;2024-02-21T12:18:44;13.23;;;7.53;;
11911;SDS011;6016;41.928;25.556;2024-02-21T12:21:11;13.32;;;8.00;;
11911;SDS011;6016;41.928;25.556;2024-02-21T12:23:38;14.05;;;8.05;;
11911;SDS011;6016;41.928;25.556;2024-02-21T12:26:06;13.55;;;7.18;;
11911;SDS011;6016;41.928;25.556;2024-02-21T12:28:33;11.15;;;6.70;;
11911;SDS011;6016;41.928;25.556;2024-02-21T12:31:00;9.90;;;5.65;;
11911;SDS011;6016;41.928;25.556;2024-02-21T12:33:30;11.05;;;6.65;;
11911;SDS011;6016;41.928;25.556;2024-02-21T12:35:58;9.30;;;5.53;;
11911;SDS011;6016;41.928;25.556;2024-02-21T12:38:25;9.80;;;5.80;;
11911;SDS011;6016;41.928;25.556;2024-02-21T12:40:52;10.88;;;7.00;;
11911;SDS011;6016;41.928;25.556;2024-02-21T12:43:19;9.48;;;5.25;;
11911;SDS011;6016;41.928;25.556;2024-02-21T12:45:47;8.10;;;5.18;;
11911;SDS011;6016;41.928;25.556;2024-02-21T12:48:14;11.65;;;6.38;;
11911;SDS011;6016;41.928;25.556;2024-02-21T12:50:47;9.93;;;5.50;;
11911;SDS011;6016;41.928;25.556;2024-02-21T12:53:16;9.38;;;5.82;;
11911;SDS011;6016;41.928;25.556;2024-02-21T12:55:44;8.63;;;5.70;;
11911;SDS011;6016;41.928;25.556;2024-02-21T12:58:11;9.05;;;5.40;;
11911;SDS011;6016;41.928;25.556;2024-02-21T13:00:39;8.80;;;5.05;;
11911;SDS011;6016;41.928;25.556;2024-02-21T13:03:06;7.82;;;5.07;;
11911;SDS011;6016;41.928;25.556;2024-02-21T13:05:34;8.80;;;5.55;;
11911;SDS011;6016;41.928;25.556;2024-02-21T13:08:03;8.05;;;4.82;;
11911;SDS011;6016;41.928;25.556;2024-02-21T13:10:30;10.35;;;5.13;;
11911;SDS011;6016;41.928;25.556;2024-02-21T13:12:58;9.15;;;5.75;;
11911;SDS011;6016;41.928;25.556;2024-02-21T13:15:25;10.25;;;5.47;;
11911;SDS011;6016;41.928;25.556;2024-02-21T13:17:53;9.63;;;5.57;;
11911;SDS011;6016;41.928;25.556;2024-02-21T13:20:20;10.27;;;5.78;;
11911;SDS011;6016;41.928;25.556;2024-02-21T13:22:47;10.35;;;6.10;;
11911;SDS011;6016;41.928;25.556;2024-02-21T13:25:15;11.95;;;5.63;;
11911;SDS011;6016;41.928;25.556;2024-02-21T13:27:45;12.60;;;6.70;;
11911;SDS011;6016;41.928;25.556;2024-02-21T13:30:12;9.40;;;5.57;;
11911;SDS011;6016;41.928;25.556;2024-02-21T13:32:41;8.52;;;5.13;;
11911;SDS011;6016;41.928;25.556;2024-02-21T13:35:08;8.48;;;5.15;;
11911;SDS011;6016;41.928;25.556;2024-02-21T13:37:37;9.02;;;5.93;;
11911;SDS011;6016;41.928;25.556;2024-02-21T13:40:04;9.10;;;5.72;;
11911;SDS011;6016;41.928;25.556;2024-02-21T13:42:35;9.32;;;5.70;;
11911;SDS011;6016;41.928;25.556;2024-02-21T13:45:03;10.68;;;5.97;;
11911;SDS011;6016;41.928;25.556;2024-02-21T13:47:31;9.18;;;5.50;;
11911;SDS011;6016;41.928;25.556;2024-02-21T13:49:58;8.10;;;4.80;;
11911;SDS011;6016;41.928;25.556;2024-02-21T13:52:25;7.05;;;4.90;;
11911;SDS011;6016;41.928;25.556;2024-02-21T13:54:52;7.70;;;4.75;;
11911;SDS011;6016;41.928;25.556;2024-02-21T13:57:19;9.55;;;5.18;;
11911;SDS011;6016;41.928;25.556;2024-02-21T13:59:48;9.77;;;5.10;;
11911;SDS011;6016;41.928;25.556;2024-02-21T14:02:16;8.25;;;4.90;;
11911;SDS011;6016;41.928;25.556;2024-02-21T14:04:43;8.25;;;5.03;;
11911;SDS011;6016;41.928;25.556;2024-02-21T14:07:17;8.30;;;4.50;;
11911;SDS011;6016;41.928;25.556;2024-02-21T14:09:44;8.02;;;5.20;;
11911;SDS011;6016;41.928;25.556;2024-02-21T14:12:11;13.05;;;6.93;;
11911;SDS011;6016;41.928;25.556;2024-02-21T14:14:38;10.07;;;5.82;;
11911;SDS011;6016;41.928;25.556;2024-02-21T14:17:08;10.27;;;5.38;;
11911;SDS011;6016;41.928;25.556;2024-02-21T14:19:35;8.73;;;5.10;;
11911;SDS011;6016;41.928;25.556;2024-02-21T14:22:02;8.00;;;4.82;;
11911;SDS011;6016;41.928;25.556;2024-02-21T14:24:29;8.13;;;5.00;;
11911;SDS011;6016;41.928;25.556;2024-02-21T14:26:56;7.88;;;5.30;;
11911;SDS011;6016;41.928;25.556;2024-02-21T14:29:25;8.48;;;5.13;;